Time;durP1;ratioP1;P1;durP2;ratioP2;P2;SDS_P1;SDS_P2;PMS_P1;PMS_P2;Temp;Humidity;BMP_temperature;BMP_pressure;BME280_temperature;BME280_humidity;BME280_pressure;Samples;Min_cycle;Max_cycle;Signal;HPM_P1;HPM_P2
2021/07/24 00:00:00;;;;;;;4.50;2.15;;;20.60;69.60;;;;;;5009420;28;20029;-81
2021/07/24 00:02:25;;;;;;;7.75;2.22;;;20.60;69.70;;;;;;5009197;28;20402;-81
2021/07/24 00:04:51;;;;;;;6.60;2.20;;;20.60;69.50;;;;;;5009778;28;20457;-81
2021/07/24 00:07:17;;;;;;;6.38;2.30;;;20.50;69.10;;;;;;5010773;28;20084;-83
2021/07/24 00:09:42;;;;;;;4.70;2.08;;;20.50;69.60;;;;;;5009563;28;20026;-81
2021/07/24 00:12:12;;;;;;;6.38;1.70;;;20.50;69.60;;;;;;5009079;28;20065;-81
2021/07/24 00:14:37;;;;;;;3.83;1.60;;;20.40;69.10;;;;;;5008900;28;20032;-81
2021/07/24 00:17:03;;;;;;;5.20;1.63;;;20.40;69.10;;;;;;5008811;28;20026;-81
2021/07/24 00:19:29;;;;;;;6.38;2.20;;;20.40;69.00;;;;;;5010786;28;20026;-81
2021/07/24 00:21:54;;;;;;;9.23;1.83;;;20.40;69.30;;;;;;5014351;28;20486;-80
2021/07/24 00:24:20;;;;;;;5.22;1.67;;;20.40;69.10;;;;;;5010567;28;20034;-83
2021/07/24 00:26:47;;;;;;;7.45;1.83;;;20.40;69.40;;;;;;5012354;28;20109;-81
2021/07/24 00:29:14;;;;;;;4.68;1.77;;;20.40;69.20;;;;;;5016777;28;20121;-80
2021/07/24 00:31:40;;;;;;;5.78;2.13;;;20.40;69.30;;;;;;5006553;28;20049;-81
2021/07/24 00:34:06;;;;;;;6.72;2.90;;;20.40;69.20;;;;;;5014549;28;20034;-80
2021/07/24 00:36:32;;;;;;;7.28;2.00;;;20.50;69.40;;;;;;5012271;28;20075;-80
2021/07/24 00:38:57;;;;;;;7.40;2.00;;;20.40;69.30;;;;;;5015158;28;20086;-80
2021/07/24 00:41:42;;;;;;;4.93;1.85;;;20.40;69.20;;;;;;5022832;28;20029;-78
2021/07/24 00:44:09;;;;;;;6.50;2.10;;;20.40;69.30;;;;;;5012543;28;20022;-78
2021/07/24 00:46:37;;;;;;;5.88;2.00;;;20.40;69.80;;;;;;5012353;28;20105;-79
2021/07/24 00:49:05;;;;;;;5.90;2.22;;;20.40;69.70;;;;;;5014330;28;20065;-79
2021/07/24 00:51:34;;;;;;;6.40;1.90;;;20.30;69.60;;;;;;5011939;28;20101;-78
2021/07/24 00:54:03;;;;;;;7.90;2.25;;;20.30;69.70;;;;;;5011904;28;20068;-78
2021/07/24 00:56:29;;;;;;;4.90;1.80;;;20.30;69.50;;;;;;5012302;28;20073;-78
2021/07/24 00:58:55;;;;;;;5.72;1.90;;;20.30;69.90;;;;;;5012033;28;20036;-78
2021/07/24 01:01:21;;;;;;;5.80;1.90;;;20.30;70.00;;;;;;5013088;28;20026;-79
2021/07/24 01:03:48;;;;;;;7.50;2.13;;;20.20;70.20;;;;;;5010963;28;20101;-80
2021/07/24 01:06:15;;;;;;;4.50;1.98;;;20.20;70.30;;;;;;5011249;28;20030;-80
2021/07/24 01:08:42;;;;;;;5.13;1.98;;;20.20;70.20;;;;;;5011943;28;20041;-80
2021/07/24 01:11:10;;;;;;;6.50;2.13;;;20.20;70.20;;;;;;5012050;28;20076;-81
2021/07/24 01:13:36;;;;;;;5.75;1.77;;;20.20;69.40;;;;;;5010946;28;20043;-80
2021/07/24 01:16:02;;;;;;;8.25;2.45;;;20.10;69.60;;;;;;5013738;28;20189;-81
2021/07/24 01:18:28;;;;;;;6.07;2.03;;;20.00;70.10;;;;;;5010164;28;20025;-80
2021/07/24 01:20:58;;;;;;;7.50;2.20;;;19.90;70.10;;;;;;5011464;28;20509;-80
2021/07/24 01:23:24;;;;;;;5.53;1.85;;;19.80;71.10;;;;;;5010532;28;20038;-80
2021/07/24 01:25:53;;;;;;;5.18;2.20;;;19.80;71.00;;;;;;5011333;28;20561;-80
2021/07/24 01:28:32;;;;;;;6.00;2.10;;;19.80;70.70;;;;;;5017269;28;20395;-80
2021/07/24 01:31:04;;;;;;;6.38;2.53;;;19.70;71.10;;;;;;5009750;28;20057;-80
2021/07/24 01:33:29;;;;;;;7.90;2.40;;;19.70;71.40;;;;;;5011439;28;20026;-79
2021/07/24 01:35:55;;;;;;;4.32;2.03;;;19.60;71.20;;;;;;5009983;28;20115;-79
2021/07/24 01:38:21;;;;;;;5.32;1.92;;;19.60;71.60;;;;;;5011569;28;20092;-80
2021/07/24 01:40:48;;;;;;;4.10;1.98;;;19.60;71.40;;;;;;5024455;28;20054;-78
2021/07/24 01:43:13;;;;;;;4.80;2.17;;;19.50;71.80;;;;;;5013618;28;20409;-79
2021/07/24 01:45:40;;;;;;;5.40;2.00;;;19.50;72.20;;;;;;5010167;28;20034;-78
2021/07/24 01:48:15;;;;;;;5.32;2.15;;;19.40;72.30;;;;;;5009975;28;20034;-79
2021/07/24 01:53:27;;;;;;;5.05;2.05;;;19.30;72.20;;;;;;5011373;28;20036;-79
2021/07/24 01:56:03;;;;;;;7.88;2.65;;;19.30;72.70;;;;;;5011336;28;20026;-78
2021/07/24 01:58:32;;;;;;;5.43;2.13;;;19.40;73.00;;;;;;5009944;28;20037;-79
2021/07/24 02:01:00;;;;;;;6.97;2.30;;;19.30;72.80;;;;;;5009139;28;20055;-80
2021/07/24 02:03:40;;;;;;;5.47;2.20;;;19.30;73.50;;;;;;4992757;28;20085;-79
2021/07/24 02:06:10;;;;;;;5.68;2.35;;;19.40;73.60;;;;;;4997376;28;20768;-81
2021/07/24 02:08:36;;;;;;;6.30;2.25;;;19.50;74.00;;;;;;4995040;28;20506;-79
2021/07/24 02:11:03;;;;;;;4.55;2.33;;;19.50;73.00;;;;;;4995445;28;20026;-81
2021/07/24 02:13:29;;;;;;;5.95;2.40;;;19.60;72.80;;;;;;4993442;28;20474;-81
2021/07/24 02:15:56;;;;;;;6.78;2.25;;;19.60;72.60;;;;;;4993888;28;20391;-79
2021/07/24 02:18:23;;;;;;;5.18;2.30;;;19.60;72.60;;;;;;4995730;28;20034;-81
2021/07/24 02:20:49;;;;;;;5.25;2.28;;;19.50;72.80;;;;;;5001014;28;20014;-80
2021/07/24 02:23:16;;;;;;;6.45;2.40;;;19.50;74.50;;;;;;4995097;28;20029;-79
2021/07/24 02:25:42;;;;;;;7.38;2.30;;;19.50;73.20;;;;;;5006715;28;20046;-81
2021/07/24 02:28:08;;;;;;;6.90;2.50;;;19.60;73.70;;;;;;5008733;28;20095;-79
2021/07/24 02:30:34;;;;;;;5.28;2.33;;;19.50;73.30;;;;;;4996538;28;20435;-79
2021/07/24 02:33:00;;;;;;;5.82;2.42;;;19.60;72.90;;;;;;4996918;28;20163;-80
2021/07/24 02:35:26;;;;;;;6.40;2.90;;;19.50;73.00;;;;;;4996011;28;20029;-79
2021/07/24 02:37:51;;;;;;;7.22;3.10;;;19.50;72.70;;;;;;5000593;28;20101;-79
2021/07/24 02:40:17;;;;;;;5.93;2.58;;;19.40;72.70;;;;;;5008028;28;20037;-78
2021/07/24 02:42:44;;;;;;;6.78;2.83;;;19.40;73.60;;;;;;4996705;28;20034;-81
2021/07/24 02:45:10;;;;;;;6.90;2.78;;;19.40;73.50;;;;;;4996263;28;20019;-80
2021/07/24 02:47:36;;;;;;;5.53;2.83;;;19.40;74.30;;;;;;4993800;28;20038;-80
2021/07/24 02:50:02;;;;;;;6.55;2.70;;;19.40;73.90;;;;;;4994792;28;20041;-80
2021/07/24 02:52:28;;;;;;;7.18;3.00;;;19.40;73.90;;;;;;4992782;28;20058;-80
2021/07/24 02:54:54;;;;;;;4.93;2.45;;;19.50;73.70;;;;;;4995013;28;20545;-80
2021/07/24 02:57:20;;;;;;;4.50;2.38;;;19.40;72.90;;;;;;4996942;28;20038;-80
2021/07/24 02:59:45;;;;;;;7.10;3.03;;;19.40;74.20;;;;;;5007694;28;20022;-80
2021/07/24 03:02:14;;;;;;;6.15;2.92;;;19.30;73.50;;;;;;5010132;28;20026;-80
2021/07/24 03:04:39;;;;;;;7.90;2.92;;;19.20;73.40;;;;;;5009617;28;20061;-80
2021/07/24 03:07:05;;;;;;;5.60;2.45;;;19.20;74.20;;;;;;5009670;28;20069;-81
2021/07/24 03:09:31;;;;;;;6.15;2.90;;;19.30;74.00;;;;;;5010334;28;20393;-80
2021/07/24 03:11:56;;;;;;;7.05;3.10;;;19.30;73.70;;;;;;5009903;28;20108;-80
2021/07/24 03:14:22;;;;;;;5.60;2.80;;;19.30;74.50;;;;;;5010168;28;20030;-80
2021/07/24 03:16:47;;;;;;;5.65;2.70;;;19.30;73.70;;;;;;5007752;28;20062;-80
2021/07/24 03:19:13;;;;;;;6.68;2.70;;;19.20;74.00;;;;;;5010854;28;20026;-80
2021/07/24 03:21:38;;;;;;;6.88;2.53;;;19.10;73.70;;;;;;5008145;28;20038;-80
2021/07/24 03:24:04;;;;;;;5.03;2.53;;;19.10;74.40;;;;;;5010121;28;20145;-81
2021/07/24 03:26:30;;;;;;;5.32;2.63;;;19.10;74.90;;;;;;5009951;28;20434;-80
2021/07/24 03:28:56;;;;;;;6.47;3.10;;;19.10;74.60;;;;;;5009215;28;20064;-80
2021/07/24 03:31:22;;;;;;;6.70;2.88;;;19.10;74.50;;;;;;5006723;28;20416;-81
2021/07/24 03:33:47;;;;;;;6.75;2.65;;;19.10;74.60;;;;;;5010603;28;20030;-80
2021/07/24 03:36:13;;;;;;;4.80;2.40;;;19.10;74.10;;;;;;5008316;28;20026;-80
2021/07/24 03:38:38;;;;;;;6.03;2.80;;;19.10;74.10;;;;;;5008450;28;20088;-80
2021/07/24 03:41:04;;;;;;;9.00;3.13;;;19.00;73.80;;;;;;5021735;28;20019;-80
2021/07/24 03:43:33;;;;;;;5.32;2.50;;;19.00;74.00;;;;;;4995481;28;20030;-80
2021/07/24 03:45:59;;;;;;;5.95;2.50;;;19.00;74.70;;;;;;5009715;28;20026;-80
2021/07/24 03:48:25;;;;;;;6.80;2.65;;;18.90;74.30;;;;;;5008380;28;20052;-80
2021/07/24 03:50:50;;;;;;;6.28;2.72;;;18.90;74.60;;;;;;5009898;28;20093;-80
2021/07/24 03:53:16;;;;;;;4.95;2.30;;;18.90;74.00;;;;;;5007756;28;20026;-80
2021/07/24 03:55:41;;;;;;;6.03;3.08;;;18.90;74.50;;;;;;5012635;28;20032;-81
2021/07/24 03:58:07;;;;;;;7.35;2.88;;;18.80;74.00;;;;;;5015110;28;20030;-81
2021/07/24 04:00:47;;;;;;;7.25;2.75;;;18.80;74.40;;;;;;5011467;28;20101;-80
2021/07/24 04:03:13;;;;;;;4.40;2.42;;;18.80;75.00;;;;;;5012623;28;20113;-80
2021/07/24 04:05:42;;;;;;;4.95;2.22;;;18.70;75.30;;;;;;5013038;28;20505;-80
2021/07/24 04:08:08;;;;;;;6.45;2.47;;;18.70;75.60;;;;;;5011207;28;20042;-80
2021/07/24 04:10:36;;;;;;;5.65;2.50;;;18.70;75.00;;;;;;5011720;28;20025;-79
2021/07/24 04:13:02;;;;;;;7.28;2.70;;;18.70;75.00;;;;;;5012044;28;20502;-79
2021/07/24 04:15:28;;;;;;;6.13;2.63;;;18.60;75.50;;;;;;5012321;28;20042;-78
2021/07/24 04:17:54;;;;;;;5.38;2.40;;;18.60;75.60;;;;;;5010850;28;20050;-79
2021/07/24 04:20:23;;;;;;;4.70;2.35;;;18.60;75.10;;;;;;5013183;28;20030;-79
2021/07/24 04:22:48;;;;;;;6.53;3.10;;;18.60;75.40;;;;;;5013232;28;20031;-80
2021/07/24 04:25:14;;;;;;;5.82;2.83;;;18.50;76.00;;;;;;5013746;28;20026;-80
2021/07/24 04:27:44;;;;;;;4.95;2.45;;;18.50;76.10;;;;;;5012821;28;20034;-78
2021/07/24 04:30:10;;;;;;;5.82;2.70;;;18.50;75.60;;;;;;5010827;28;20014;-78
2021/07/24 04:32:36;;;;;;;4.85;2.40;;;18.40;76.30;;;;;;5012829;28;20076;-79
2021/07/24 04:35:03;;;;;;;6.30;2.85;;;18.50;76.80;;;;;;5011377;28;20030;-78
2021/07/24 04:37:29;;;;;;;4.63;2.78;;;18.40;76.50;;;;;;5002476;28;20070;-78
2021/07/24 04:39:55;;;;;;;6.80;2.92;;;18.40;76.30;;;;;;5001288;28;20494;-78
2021/07/24 04:42:21;;;;;;;7.05;2.60;;;18.40;76.20;;;;;;5008290;28;20040;-80
2021/07/24 04:44:47;;;;;;;4.63;2.50;;;18.40;76.40;;;;;;5011236;28;20479;-79
2021/07/24 04:47:12;;;;;;;5.20;2.85;;;18.50;76.80;;;;;;4999693;28;20030;-79
2021/07/24 04:49:47;;;;;;;6.90;2.90;;;18.50;76.80;;;;;;4996347;28;20099;-79
2021/07/24 04:52:13;;;;;;;4.22;2.55;;;18.50;76.20;;;;;;5010530;28;20066;-81
2021/07/24 04:54:40;;;;;;;6.78;2.50;;;18.50;76.30;;;;;;5011516;28;20454;-81
2021/07/24 04:57:06;;;;;;;6.72;2.88;;;18.50;76.50;;;;;;5003504;28;20041;-80
2021/07/24 04:59:31;;;;;;;5.65;2.63;;;18.50;76.80;;;;;;5005368;28;20026;-81
2021/07/24 05:01:57;;;;;;;4.53;2.50;;;18.50;77.10;;;;;;5002274;28;20060;-80
2021/07/24 05:04:23;;;;;;;5.65;2.65;;;18.50;76.70;;;;;;5012716;28;20543;-81
2021/07/24 05:06:48;;;;;;;6.70;2.47;;;18.50;77.00;;;;;;5010574;28;20089;-81
2021/07/24 05:09:14;;;;;;;8.25;2.45;;;18.50;76.70;;;;;;5010309;28;20387;-80
2021/07/24 05:11:40;;;;;;;6.38;2.72;;;18.50;76.00;;;;;;5010251;28;20156;-80
2021/07/24 05:14:05;;;;;;;6.00;2.42;;;18.50;76.90;;;;;;5010599;28;20117;-79
2021/07/24 05:16:31;;;;;;;4.60;2.28;;;18.60;77.20;;;;;;5012548;28;20018;-79
2021/07/24 05:18:58;;;;;;;7.25;2.78;;;18.60;76.70;;;;;;4994665;28;20038;-79
2021/07/24 05:21:24;;;;;;;5.60;2.47;;;18.60;77.20;;;;;;5008289;28;20026;-79
2021/07/24 05:23:49;;;;;;;7.55;2.80;;;18.60;76.90;;;;;;5002492;28;20036;-80
2021/07/24 05:26:15;;;;;;;5.40;2.75;;;18.70;76.90;;;;;;4993684;28;20030;-79
2021/07/24 05:28:42;;;;;;;6.05;2.30;;;18.80;77.40;;;;;;5010468;28;20403;-79
2021/07/24 05:31:18;;;;;;;4.32;2.22;;;18.80;78.20;;;;;;5012509;28;20049;-81
2021/07/24 05:33:44;;;;;;;3.10;2.17;;;19.00;77.50;;;;;;5007829;28;20116;-79
2021/07/24 05:36:10;;;;;;;4.50;2.20;;;19.20;78.30;;;;;;4998669;28;20164;-80
2021/07/24 05:38:39;;;;;;;4.07;2.22;;;19.30;76.70;;;;;;4998306;28;20457;-80
2021/07/24 05:41:05;;;;;;;4.78;2.28;;;19.30;76.10;;;;;;4994046;28;20409;-79
2021/07/24 05:43:31;;;;;;;5.85;2.40;;;19.30;76.00;;;;;;4992911;28;20022;-80
2021/07/24 05:45:59;;;;;;;4.63;1.90;;;19.30;76.50;;;;;;4994512;28;20026;-81
2021/07/24 05:48:25;;;;;;;4.78;2.25;;;19.30;75.60;;;;;;4997824;28;20125;-79
2021/07/24 05:50:50;;;;;;;5.32;2.25;;;19.30;76.00;;;;;;4993278;28;20577;-80
2021/07/24 05:53:16;;;;;;;4.30;2.00;;;19.30;76.20;;;;;;4997679;28;20041;-79
2021/07/24 05:55:41;;;;;;;3.80;1.95;;;19.30;76.40;;;;;;5008927;28;20096;-79
2021/07/24 05:58:10;;;;;;;3.53;2.00;;;19.40;76.00;;;;;;5007779;28;20032;-80
2021/07/24 06:00:36;;;;;;;5.38;1.90;;;19.40;75.70;;;;;;5008336;28;20022;-80
2021/07/24 06:03:01;;;;;;;5.68;1.92;;;19.50;76.00;;;;;;5006302;28;20036;-79
2021/07/24 06:05:27;;;;;;;4.85;2.00;;;19.50;76.10;;;;;;5006071;28;20028;-80
2021/07/24 06:07:52;;;;;;;4.50;1.92;;;19.60;75.90;;;;;;5001611;28;20034;-79
2021/07/24 06:10:18;;;;;;;3.92;1.75;;;19.70;76.80;;;;;;5009696;28;20121;-79
2021/07/24 06:12:47;;;;;;;4.50;1.80;;;19.80;75.80;;;;;;5006613;28;20021;-81
2021/07/24 06:15:13;;;;;;;4.72;1.83;;;19.80;75.60;;;;;;5007782;28;20483;-80
2021/07/24 06:17:39;;;;;;;3.45;1.75;;;20.00;75.40;;;;;;5002331;28;20027;-81
2021/07/24 06:20:05;;;;;;;5.13;2.00;;;20.10;75.20;;;;;;5005400;28;20026;-81
2021/07/24 06:22:31;;;;;;;9.32;2.15;;;20.10;74.50;;;;;;5010274;28;20034;-81
2021/07/24 06:24:56;;;;;;;4.55;2.25;;;20.10;74.50;;;;;;4997042;28;20092;-81
2021/07/24 06:27:22;;;;;;;3.40;2.17;;;20.10;74.60;;;;;;4997491;28;20111;-70
2021/07/24 06:29:47;;;;;;;4.55;1.65;;;20.10;76.90;;;;;;4995405;28;20018;-68
2021/07/24 06:32:13;;;;;;;4.47;2.20;;;20.20;75.90;;;;;;5001932;28;20408;-69
2021/07/24 06:34:38;;;;;;;3.45;1.90;;;20.30;76.40;;;;;;4993728;28;20026;-68
2021/07/24 06:37:04;;;;;;;4.15;1.70;;;20.40;75.80;;;;;;4998928;28;20026;-68
2021/07/24 06:39:30;;;;;;;3.28;1.80;;;20.30;75.50;;;;;;5008561;28;20072;-69
2021/07/24 06:41:55;;;;;;;3.88;1.77;;;20.40;74.80;;;;;;5003738;28;20113;-68
2021/07/24 06:44:21;;;;;;;3.08;1.33;;;20.40;75.30;;;;;;5006874;28;20064;-68
2021/07/24 06:46:47;;;;;;;3.35;1.60;;;20.50;74.40;;;;;;4996576;28;20030;-68
2021/07/24 06:49:13;;;;;;;3.03;1.50;;;20.40;73.60;;;;;;5009943;28;20037;-68
2021/07/24 06:51:38;;;;;;;4.25;1.60;;;20.40;73.40;;;;;;4995437;28;20561;-68
2021/07/24 06:54:04;;;;;;;3.67;1.50;;;20.40;75.50;;;;;;5000736;28;20038;-68
2021/07/24 06:56:33;;;;;;;3.33;1.30;;;20.40;73.50;;;;;;5007833;28;20056;-69
2021/07/24 06:58:58;;;;;;;3.30;1.63;;;20.40;73.30;;;;;;5008119;28;20029;-68
2021/07/24 07:01:24;;;;;;;4.05;1.60;;;20.40;73.20;;;;;;5010050;28;20026;-68
2021/07/24 07:03:50;;;;;;;5.63;3.08;;;20.40;74.00;;;;;;5007135;28;20057;-68
2021/07/24 07:06:15;;;;;;;5.43;2.05;;;20.50;73.50;;;;;;5008791;28;20052;-69
2021/07/24 07:08:41;;;;;;;3.28;1.90;;;20.50;73.40;;;;;;5007978;28;20033;-69
2021/07/24 07:11:07;;;;;;;3.15;1.48;;;20.60;73.80;;;;;;5008518;28;20419;-68
2021/07/24 07:13:33;;;;;;;4.57;1.65;;;20.70;73.50;;;;;;5010012;28;20137;-68
2021/07/24 07:16:06;;;;;;;3.38;1.60;;;20.70;73.40;;;;;;5012056;28;20030;-68
2021/07/24 07:18:32;;;;;;;3.75;1.50;;;20.80;72.70;;;;;;5007981;28;20121;-68
2021/07/24 07:20:58;;;;;;;3.85;1.80;;;20.90;72.30;;;;;;5008479;28;20033;-69
2021/07/24 07:23:23;;;;;;;3.60;1.45;;;20.90;71.70;;;;;;5009701;28;20038;-69
2021/07/24 07:25:49;;;;;;;2.95;1.50;;;20.80;72.00;;;;;;5008524;28;20026;-69
2021/07/24 07:28:15;;;;;;;2.80;1.50;;;20.80;72.10;;;;;;5011949;28;20030;-69
2021/07/24 07:30:40;;;;;;;3.28;1.40;;;20.70;71.70;;;;;;5012656;28;20058;-69
2021/07/24 07:33:06;;;;;;;3.38;1.38;;;20.70;71.70;;;;;;5012296;28;20097;-69
2021/07/24 07:35:32;;;;;;;4.78;1.80;;;20.70;72.10;;;;;;5012202;28;20037;-68
2021/07/24 07:37:59;;;;;;;4.35;1.70;;;20.70;72.40;;;;;;5011854;28;20542;-69
2021/07/24 07:40:25;;;;;;;4.45;1.70;;;20.70;72.10;;;;;;5027087;28;20025;-69
2021/07/24 07:42:51;;;;;;;3.67;1.55;;;20.80;72.30;;;;;;5013158;28;20037;-69
2021/07/24 07:45:17;;;;;;;7.68;1.90;;;20.90;72.40;;;;;;5011897;28;20025;-69
2021/07/24 07:47:43;;;;;;;6.15;1.75;;;21.10;73.20;;;;;;5013450;28;20037;-68
2021/07/24 07:50:09;;;;;;;3.13;1.30;;;21.30;71.60;;;;;;5010420;28;20033;-69
2021/07/24 07:52:35;;;;;;;3.85;1.55;;;21.60;71.60;;;;;;5008835;28;20030;-75
2021/07/24 07:55:02;;;;;;;3.78;1.50;;;21.80;70.00;;;;;;5014639;28;20026;-74
2021/07/24 07:57:29;;;;;;;3.22;1.40;;;21.90;69.40;;;;;;4998469;28;20153;-74
2021/07/24 07:59:55;;;;;;;3.50;1.63;;;22.00;67.60;;;;;;4996870;28;20014;-74
2021/07/24 08:02:21;;;;;;;4.30;1.67;;;21.90;68.20;;;;;;4995540;28;20034;-77
2021/07/24 08:04:48;;;;;;;6.40;1.90;;;21.90;68.30;;;;;;5003601;28;20033;-74
2021/07/24 08:07:17;;;;;;;4.40;1.58;;;21.90;68.00;;;;;;5010752;28;20475;-74
2021/07/24 08:09:43;;;;;;;2.75;1.50;;;21.80;67.80;;;;;;5013698;28;20042;-75
2021/07/24 08:12:08;;;;;;;4.05;1.63;;;21.70;68.00;;;;;;5013080;28;20021;-74
2021/07/24 08:14:34;;;;;;;5.05;1.80;;;21.60;67.90;;;;;;5011759;28;20034;-74
2021/07/24 08:17:00;;;;;;;4.40;1.33;;;21.70;68.30;;;;;;5011836;28;20019;-74
2021/07/24 08:19:26;;;;;;;2.47;1.27;;;21.90;68.40;;;;;;5013990;28;20414;-76
2021/07/24 08:21:52;;;;;;;3.30;1.30;;;22.00;66.40;;;;;;5003012;28;20957;-75
2021/07/24 08:24:18;;;;;;;2.83;1.25;;;22.00;66.50;;;;;;5008126;28;20038;-78
2021/07/24 08:26:43;;;;;;;4.18;1.70;;;22.10;66.90;;;;;;5010571;28;20033;-76
2021/07/24 08:29:09;;;;;;;3.28;1.30;;;22.30;66.40;;;;;;5011379;28;20478;-76
2021/07/24 08:31:35;;;;;;;2.25;1.35;;;22.10;65.40;;;;;;5011590;28;20129;-79
2021/07/24 08:34:00;;;;;;;3.38;1.50;;;22.00;66.40;;;;;;5014439;28;20033;-77
2021/07/24 08:36:26;;;;;;;3.70;1.23;;;21.80;67.50;;;;;;5010793;28;20026;-77
2021/07/24 08:38:51;;;;;;;3.55;1.08;;;21.70;68.30;;;;;;5014303;28;20396;-82
2021/07/24 08:41:17;;;;;;;2.80;1.20;;;21.60;67.80;;;;;;5024069;28;20026;-79
2021/07/24 08:43:46;;;;;;;2.47;1.00;;;21.50;68.50;;;;;;5011133;28;20117;-85
2021/07/24 08:46:13;;;;;;;3.45;1.45;;;21.40;68.50;;;;;;5012125;28;20036;-79
2021/07/24 08:48:39;;;;;;;3.30;1.70;;;21.40;68.50;;;;;;5011240;28;20133;-81
2021/07/24 08:51:05;;;;;;;2.28;1.30;;;21.40;68.70;;;;;;5010322;28;20018;-82
2021/07/24 08:53:34;;;;;;;3.35;1.17;;;21.50;68.70;;;;;;5010671;28;20034;-83
2021/07/24 08:56:12;;;;;;;4.30;1.55;;;21.60;68.00;;;;;;5006778;28;20045;-79
2021/07/24 08:58:41;;;;;;;2.50;1.33;;;21.60;67.70;;;;;;5012183;28;20519;-76
2021/07/24 09:01:10;;;;;;;1.98;1.00;;;21.70;66.60;;;;;;5012464;28;20030;-80
2021/07/24 09:03:37;;;;;;;2.90;1.13;;;21.80;67.10;;;;;;5003065;28;20077;-81
2021/07/24 09:06:03;;;;;;;4.15;1.83;;;22.10;66.70;;;;;;5008115;28;20036;-80
2021/07/24 09:08:29;;;;;;;6.30;3.50;;;22.10;65.10;;;;;;5007405;28;20125;-81
2021/07/24 09:10:54;;;;;;;4.85;1.70;;;22.20;64.70;;;;;;4999640;28;20500;-81
2021/07/24 09:13:20;;;;;;;5.97;3.13;;;22.40;65.30;;;;;;5006284;28;20022;-81
2021/07/24 09:15:46;;;;;;;3.85;1.60;;;22.60;65.50;;;;;;4998848;28;20023;-81
2021/07/24 09:18:11;;;;;;;2.40;1.23;;;22.70;65.00;;;;;;4999006;28;20026;-78
2021/07/24 09:20:41;;;;;;;4.93;2.15;;;22.80;64.80;;;;;;5001690;28;20105;-76
2021/07/24 09:23:25;;;;;;;8.27;4.45;;;22.80;64.40;;;;;;5005631;28;20064;-76
2021/07/24 09:25:51;;;;;;;5.90;2.15;;;22.90;64.10;;;;;;5006746;28;20036;-77
2021/07/24 09:28:17;;;;;;;4.13;1.98;;;23.10;63.80;;;;;;5013507;28;20041;-76
2021/07/24 09:30:42;;;;;;;3.58;1.60;;;23.10;62.40;;;;;;5005489;28;21435;-82
2021/07/24 09:33:12;;;;;;;4.05;1.20;;;22.70;62.10;;;;;;5010168;28;20084;-82
2021/07/24 09:35:45;;;;;;;3.25;1.35;;;21.10;77.70;;;;;;5010518;28;20109;-84
2021/07/24 09:38:11;;;;;;;4.78;1.50;;;20.20;79.40;;;;;;5011058;28;20029;-84
2021/07/24 09:40:38;;;;;;;3.80;1.40;;;19.80;81.30;;;;;;5024174;28;20033;-83
2021/07/24 09:43:24;;;;;;;3.28;1.30;;;19.00;91.10;;;;;;5012353;28;20060;-80
2021/07/24 09:46:08;;;;;;;3.53;1.20;;;18.60;93.70;;;;;;5010577;28;20411;-84
2021/07/24 09:48:33;;;;;;;3.47;1.33;;;18.40;93.90;;;;;;5011053;28;20499;-80
2021/07/24 09:50:59;;;;;;;4.10;1.30;;;18.50;93.50;;;;;;5010705;28;20026;-87
2021/07/24 09:53:42;;;;;;;2.58;1.17;;;18.60;92.90;;;;;;5008999;28;20452;-90
2021/07/24 09:56:14;;;;;;;2.25;1.13;;;18.70;92.20;;;;;;5010391;28;20097;-89
2021/07/24 09:58:40;;;;;;;4.53;1.60;;;18.70;92.10;;;;;;5003228;28;20021;-77
2021/07/24 10:01:10;;;;;;;3.08;1.30;;;18.80;91.90;;;;;;4992742;28;20037;-86
2021/07/24 10:03:39;;;;;;;3.50;1.50;;;19.00;91.50;;;;;;5005950;28;20018;-86
2021/07/24 10:06:14;;;;;;;1.85;1.00;;;19.00;91.10;;;;;;5004739;28;20101;-85
2021/07/24 10:08:42;;;;;;;4.13;1.40;;;19.20;90.60;;;;;;5004899;28;20042;-84
2021/07/24 10:11:08;;;;;;;2.95;1.27;;;19.10;90.20;;;;;;5007537;28;20365;-83
2021/07/24 10:13:34;;;;;;;3.38;1.30;;;19.00;90.10;;;;;;5010420;28;20029;-84
2021/07/24 10:16:00;;;;;;;3.97;1.67;;;18.90;89.30;;;;;;5010671;28;20037;-82
2021/07/24 10:18:27;;;;;;;4.30;1.80;;;18.80;88.90;;;;;;5009654;28;20095;-80
2021/07/24 10:20:53;;;;;;;2.90;1.55;;;18.90;88.90;;;;;;5005927;28;20033;-85
2021/07/24 10:23:23;;;;;;;3.63;1.40;;;18.90;88.80;;;;;;5009718;28;20026;-85
2021/07/24 10:26:22;;;;;;;3.15;1.73;;;18.90;88.50;;;;;;4993606;28;20036;-86
2021/07/24 10:29:14;;;;;;;2.60;1.40;;;19.00;87.70;;;;;;4994973;28;20034;-86
2021/07/24 10:31:53;;;;;;;5.78;1.92;;;18.90;86.70;;;;;;5008800;28;20046;-81
2021/07/24 10:34:30;;;;;;;4.00;1.75;;;18.90;87.30;;;;;;5007327;28;20079;-86
2021/07/24 10:36:56;;;;;;;5.47;1.65;;;18.90;86.40;;;;;;5011986;28;20026;-86
2021/07/24 10:39:22;;;;;;;3.85;1.58;;;18.80;86.40;;;;;;5013113;28;20033;-79
2021/07/24 10:42:11;;;;;;;3.80;1.77;;;18.80;86.10;;;;;;5017604;28;20026;-79
2021/07/24 10:44:38;;;;;;;3.83;2.05;;;18.70;85.80;;;;;;5006009;28;20418;-79
2021/07/24 10:47:03;;;;;;;2.92;1.60;;;18.70;87.00;;;;;;5007538;28;20026;-77
2021/07/24 10:49:35;;;;;;;4.93;1.80;;;18.60;86.90;;;;;;5009144;28;20026;-79
2021/07/24 10:52:05;;;;;;;4.32;1.75;;;18.70;86.80;;;;;;5004367;28;20054;-76
2021/07/24 10:54:32;;;;;;;4.05;2.00;;;18.70;86.50;;;;;;5006988;28;20439;-84
2021/07/24 10:56:59;;;;;;;4.38;1.65;;;18.70;86.70;;;;;;5002275;28;20025;-79
2021/07/24 10:59:30;;;;;;;5.38;1.80;;;18.70;86.60;;;;;;5008163;28;20022;-85
2021/07/24 11:02:00;;;;;;;4.75;1.90;;;18.80;86.40;;;;;;5006773;28;20053;-82
2021/07/24 11:04:35;;;;;;;4.13;1.85;;;18.80;86.00;;;;;;5000900;28;20029;-78
2021/07/24 11:07:13;;;;;;;5.65;1.73;;;18.80;86.20;;;;;;5009891;28;20066;-76
2021/07/24 11:09:45;;;;;;;4.47;1.80;;;18.80;85.30;;;;;;5009279;28;20526;-80
2021/07/24 11:12:15;;;;;;;3.40;1.45;;;18.90;85.90;;;;;;5006026;28;20057;-73
2021/07/24 11:14:42;;;;;;;4.38;1.73;;;19.00;86.00;;;;;;5007653;28;20398;-72
2021/07/24 11:17:16;;;;;;;4.93;1.60;;;19.20;85.90;;;;;;5008514;28;20025;-73
2021/07/24 11:19:45;;;;;;;4.07;1.55;;;19.40;85.50;;;;;;5007586;28;20040;-76
2021/07/24 11:22:20;;;;;;;3.63;1.60;;;19.60;84.50;;;;;;5005683;28;20032;-76
2021/07/24 11:24:49;;;;;;;3.28;1.85;;;19.70;83.20;;;;;;5011392;28;20045;-77
2021/07/24 11:27:15;;;;;;;4.15;1.83;;;19.70;83.00;;;;;;5013664;28;20037;-76
2021/07/24 11:29:41;;;;;;;4.70;1.80;;;19.70;83.00;;;;;;5018079;28;20502;-77
2021/07/24 11:32:07;;;;;;;4.68;1.67;;;19.70;83.40;;;;;;5015416;28;20042;-78
2021/07/24 11:34:35;;;;;;;4.03;1.70;;;19.70;83.00;;;;;;5023689;28;20115;-78
2021/07/24 11:37:01;;;;;;;2.75;1.55;;;19.70;82.90;;;;;;5015600;28;20032;-76
2021/07/24 11:39:32;;;;;;;2.60;1.65;;;19.70;82.30;;;;;;5010483;28;20058;-76
2021/07/24 11:41:58;;;;;;;3.22;1.60;;;19.70;82.40;;;;;;5010375;28;20042;-75
2021/07/24 11:44:29;;;;;;;4.15;1.70;;;19.60;82.40;;;;;;5013437;28;20042;-76
2021/07/24 11:47:02;;;;;;;5.03;1.70;;;19.60;83.10;;;;;;5022493;28;20025;-77
2021/07/24 11:49:31;;;;;;;2.72;1.58;;;19.70;82.90;;;;;;5008624;28;20030;-76
2021/07/24 11:51:58;;;;;;;3.63;1.73;;;19.70;83.00;;;;;;5009868;28;20026;-77
2021/07/24 11:54:32;;;;;;;3.83;1.90;;;19.80;82.70;;;;;;5010259;28;20110;-77
2021/07/24 11:56:58;;;;;;;4.18;2.22;;;19.80;83.40;;;;;;5006603;28;20552;-77
2021/07/24 11:59:28;;;;;;;6.75;1.85;;;19.80;82.40;;;;;;5010002;28;20041;-78
2021/07/24 12:01:54;;;;;;;3.15;2.10;;;19.80;81.90;;;;;;5015238;28;20092;-76
2021/07/24 12:04:20;;;;;;;4.88;2.15;;;19.70;81.90;;;;;;5025309;28;20097;-76
2021/07/24 12:07:04;;;;;;;5.22;2.25;;;19.50;81.80;;;;;;5007483;28;20113;-76
2021/07/24 12:09:31;;;;;;;4.57;1.92;;;19.40;82.20;;;;;;5018970;28;20041;-76
2021/07/24 12:12:02;;;;;;;4.10;2.00;;;19.30;83.10;;;;;;5016200;28;20076;-76
2021/07/24 12:14:29;;;;;;;3.53;1.70;;;19.20;83.80;;;;;;5013351;28;20044;-77
2021/07/24 12:17:12;;;;;;;3.60;1.65;;;19.20;84.50;;;;;;5025967;28;20014;-84
2021/07/24 12:19:40;;;;;;;4.15;1.70;;;19.00;84.40;;;;;;5014062;28;20029;-76
2021/07/24 12:22:18;;;;;;;3.72;1.58;;;19.00;85.00;;;;;;5013874;28;20041;-77
2021/07/24 12:24:46;;;;;;;2.70;1.60;;;18.90;85.10;;;;;;5015151;28;20389;-79
2021/07/24 12:27:14;;;;;;;3.10;1.27;;;18.90;85.90;;;;;;5011374;28;20072;-76
2021/07/24 12:29:58;;;;;;;3.25;1.33;;;19.00;86.20;;;;;;5012943;28;20498;-76
2021/07/24 12:32:36;;;;;;;1.98;1.20;;;19.00;85.70;;;;;;5021212;28;20041;-77
2021/07/24 12:35:18;;;;;;;3.30;1.30;;;19.10;85.00;;;;;;5012482;28;20109;-75
2021/07/24 12:37:44;;;;;;;3.20;1.40;;;19.10;84.70;;;;;;5020390;28;20022;-79
2021/07/24 12:40:17;;;;;;;3.67;1.13;;;19.20;84.90;;;;;;5027555;28;20045;-76
2021/07/24 12:42:43;;;;;;;;;;;19.30;84.60;;;;;;5014356;28;20047;-76
2021/07/24 12:45:23;;;;;;;1.95;1.00;;;19.30;84.60;;;;;;5011794;28;20390;-75
2021/07/24 12:47:48;;;;;;;2.35;1.08;;;19.40;84.10;;;;;;5011404;28;20014;-76
2021/07/24 12:50:16;;;;;;;3.13;1.38;;;19.40;84.00;;;;;;5020441;28;20092;-76
2021/07/24 12:52:47;;;;;;;2.63;1.60;;;19.40;84.00;;;;;;5011518;28;20399;-76